sensor_id;sensor_type;location;lat;lon;timestamp;P1;durP1;ratioP1;P2;durP2;ratioP2
30697;SDS011;17448;47.200;10.902;2024-03-08T00:01:16;4.72;;;2.65;;
30697;SDS011;17448;47.200;10.902;2024-03-08T00:03:44;5.68;;;2.35;;
30697;SDS011;17448;47.200;10.902;2024-03-08T00:06:10;5.43;;;3.17;;
30697;SDS011;17448;47.200;10.902;2024-03-08T00:08:36;4.28;;;2.67;;
30697;SDS011;17448;47.200;10.902;2024-03-08T00:11:03;3.45;;;2.80;;
30697;SDS011;17448;47.200;10.902;2024-03-08T00:13:29;4.95;;;2.88;;
30697;SDS011;17448;47.200;10.902;2024-03-08T00:15:55;5.38;;;2.20;;
30697;SDS011;17448;47.200;10.902;2024-03-08T00:18:22;5.78;;;2.70;;
30697;SDS011;17448;47.200;10.902;2024-03-08T00:20:49;4.15;;;2.70;;
30697;SDS011;17448;47.200;10.902;2024-03-08T00:23:16;4.65;;;2.42;;
30697;SDS011;17448;47.200;10.902;2024-03-08T00:25:42;3.15;;;2.08;;
30697;SDS011;17448;47.200;10.902;2024-03-08T00:28:08;5.30;;;2.38;;
30697;SDS011;17448;47.200;10.902;2024-03-08T00:30:38;5.85;;;3.00;;
30697;SDS011;17448;47.200;10.902;2024-03-08T00:33:05;4.00;;;2.45;;
30697;SDS011;17448;47.200;10.902;2024-03-08T00:35:32;4.35;;;2.13;;
30697;SDS011;17448;47.200;10.902;2024-03-08T00:37:59;5.43;;;2.63;;
30697;SDS011;17448;47.200;10.902;2024-03-08T00:40:25;2.88;;;2.35;;
30697;SDS011;17448;47.200;10.902;2024-03-08T00:42:51;4.90;;;2.30;;
30697;SDS011;17448;47.200;10.902;2024-03-08T00:45:18;4.43;;;2.20;;
30697;SDS011;17448;47.200;10.902;2024-03-08T00:47:44;3.63;;;2.20;;
30697;SDS011;17448;47.200;10.902;2024-03-08T00:50:11;5.20;;;2.08;;
30697;SDS011;17448;47.200;10.902;2024-03-08T00:52:38;3.20;;;2.22;;
30697;SDS011;17448;47.200;10.902;2024-03-08T00:55:04;2.45;;;1.63;;
30697;SDS011;17448;47.200;10.902;2024-03-08T00:57:30;2.58;;;1.85;;
30697;SDS011;17448;47.200;10.902;2024-03-08T00:59:56;2.97;;;2.10;;
30697;SDS011;17448;47.200;10.902;2024-03-08T01:02:23;5.15;;;1.95;;
30697;SDS011;17448;47.200;10.902;2024-03-08T01:04:49;2.20;;;2.00;;
30697;SDS011;17448;47.200;10.902;2024-03-08T01:07:15;3.63;;;2.10;;
30697;SDS011;17448;47.200;10.902;2024-03-08T01:09:42;4.18;;;2.22;;
30697;SDS011;17448;47.200;10.902;2024-03-08T01:12:08;2.97;;;1.98;;
30697;SDS011;17448;47.200;10.902;2024-03-08T01:14:35;6.53;;;2.55;;
30697;SDS011;17448;47.200;10.902;2024-03-08T01:17:02;3.33;;;1.83;;
30697;SDS011;17448;47.200;10.902;2024-03-08T01:19:28;3.97;;;1.95;;
30697;SDS011;17448;47.200;10.902;2024-03-08T01:21:58;4.20;;;1.90;;
30697;SDS011;17448;47.200;10.902;2024-03-08T01:24:24;3.17;;;2.00;;
30697;SDS011;17448;47.200;10.902;2024-03-08T01:26:50;3.45;;;1.92;;
30697;SDS011;17448;47.200;10.902;2024-03-08T01:29:16;2.38;;;1.65;;
30697;SDS011;17448;47.200;10.902;2024-03-08T01:31:43;4.90;;;2.33;;
30697;SDS011;17448;47.200;10.902;2024-03-08T01:34:09;2.72;;;1.88;;
30697;SDS011;17448;47.200;10.902;2024-03-08T01:36:35;4.28;;;1.85;;
30697;SDS011;17448;47.200;10.902;2024-03-08T01:39:02;4.65;;;1.98;;
30697;SDS011;17448;47.200;10.902;2024-03-08T01:41:36;4.60;;;1.90;;
30697;SDS011;17448;47.200;10.902;2024-03-08T01:44:02;3.95;;;2.28;;
30697;SDS011;17448;47.200;10.902;2024-03-08T01:46:29;3.45;;;1.50;;
30697;SDS011;17448;47.200;10.902;2024-03-08T01:48:56;2.65;;;1.63;;
30697;SDS011;17448;47.200;10.902;2024-03-08T01:51:22;4.03;;;1.65;;
30697;SDS011;17448;47.200;10.902;2024-03-08T01:53:49;3.25;;;1.55;;
30697;SDS011;17448;47.200;10.902;2024-03-08T01:56:16;3.92;;;2.00;;
30697;SDS011;17448;47.200;10.902;2024-03-08T01:58:43;3.13;;;1.85;;
30697;SDS011;17448;47.200;10.902;2024-03-08T02:01:10;4.03;;;1.70;;
30697;SDS011;17448;47.200;10.902;2024-03-08T02:03:37;4.97;;;1.85;;
30697;SDS011;17448;47.200;10.902;2024-03-08T02:06:03;2.15;;;1.65;;
30697;SDS011;17448;47.200;10.902;2024-03-08T02:08:30;3.53;;;1.90;;
30697;SDS011;17448;47.200;10.902;2024-03-08T02:10:56;5.07;;;1.80;;
30697;SDS011;17448;47.200;10.902;2024-03-08T02:13:23;1.90;;;1.58;;
30697;SDS011;17448;47.200;10.902;2024-03-08T02:15:56;1.60;;;1.50;;
30697;SDS011;17448;47.200;10.902;2024-03-08T02:18:24;3.95;;;1.23;;
30697;SDS011;17448;47.200;10.902;2024-03-08T02:20:51;3.67;;;2.00;;
30697;SDS011;17448;47.200;10.902;2024-03-08T02:23:21;3.92;;;1.40;;
30697;SDS011;17448;47.200;10.902;2024-03-08T02:25:47;2.72;;;1.70;;
30697;SDS011;17448;47.200;10.902;2024-03-08T02:28:14;3.72;;;1.80;;
30697;SDS011;17448;47.200;10.902;2024-03-08T02:30:41;1.98;;;1.70;;
30697;SDS011;17448;47.200;10.902;2024-03-08T02:33:07;3.90;;;1.90;;
30697;SDS011;17448;47.200;10.902;2024-03-08T02:35:36;4.05;;;1.65;;
30697;SDS011;17448;47.200;10.902;2024-03-08T02:38:03;3.83;;;1.90;;
30697;SDS011;17448;47.200;10.902;2024-03-08T02:40:29;2.55;;;1.30;;
30697;SDS011;17448;47.200;10.902;2024-03-08T02:42:56;3.17;;;1.63;;
30697;SDS011;17448;47.200;10.902;2024-03-08T02:45:22;2.60;;;1.65;;
30697;SDS011;17448;47.200;10.902;2024-03-08T02:47:48;2.58;;;1.50;;
30697;SDS011;17448;47.200;10.902;2024-03-08T02:50:15;1.73;;;1.05;;
30697;SDS011;17448;47.200;10.902;2024-03-08T02:52:44;5.75;;;1.70;;
30697;SDS011;17448;47.200;10.902;2024-03-08T02:55:14;3.37;;;1.40;;
30697;SDS011;17448;47.200;10.902;2024-03-08T02:57:41;3.42;;;1.65;;
30697;SDS011;17448;47.200;10.902;2024-03-08T03:00:09;2.78;;;1.40;;
30697;SDS011;17448;47.200;10.902;2024-03-08T03:02:36;4.43;;;1.50;;
30697;SDS011;17448;47.200;10.902;2024-03-08T03:05:02;5.47;;;1.40;;
30697;SDS011;17448;47.200;10.902;2024-03-08T03:07:34;4.18;;;1.30;;
30697;SDS011;17448;47.200;10.902;2024-03-08T03:10:00;1.48;;;1.20;;
30697;SDS011;17448;47.200;10.902;2024-03-08T03:12:27;2.20;;;1.40;;
30697;SDS011;17448;47.200;10.902;2024-03-08T03:14:54;2.28;;;1.50;;
30697;SDS011;17448;47.200;10.902;2024-03-08T03:17:22;5.55;;;1.50;;
30697;SDS011;17448;47.200;10.902;2024-03-08T03:19:48;2.88;;;1.60;;
30697;SDS011;17448;47.200;10.902;2024-03-08T03:22:14;2.80;;;1.40;;
30697;SDS011;17448;47.200;10.902;2024-03-08T03:24:41;2.50;;;1.70;;
30697;SDS011;17448;47.200;10.902;2024-03-08T03:27:07;2.42;;;1.48;;
30697;SDS011;17448;47.200;10.902;2024-03-08T03:29:37;2.65;;;1.60;;
30697;SDS011;17448;47.200;10.902;2024-03-08T03:32:05;5.45;;;1.70;;
30697;SDS011;17448;47.200;10.902;2024-03-08T03:34:33;1.95;;;1.27;;
30697;SDS011;17448;47.200;10.902;2024-03-08T03:37:02;4.93;;;1.52;;
30697;SDS011;17448;47.200;10.902;2024-03-08T03:39:28;3.08;;;1.40;;
30697;SDS011;17448;47.200;10.902;2024-03-08T03:41:57;2.45;;;1.52;;
30697;SDS011;17448;47.200;10.902;2024-03-08T03:44:24;2.85;;;1.58;;
30697;SDS011;17448;47.200;10.902;2024-03-08T03:46:51;2.75;;;1.63;;
30697;SDS011;17448;47.200;10.902;2024-03-08T03:49:17;4.28;;;1.80;;
30697;SDS011;17448;47.200;10.902;2024-03-08T03:51:43;3.63;;;1.60;;
30697;SDS011;17448;47.200;10.902;2024-03-08T03:54:10;4.47;;;1.50;;
30697;SDS011;17448;47.200;10.902;2024-03-08T03:56:36;2.58;;;1.45;;
30697;SDS011;17448;47.200;10.902;2024-03-08T03:59:02;5.50;;;1.45;;
30697;SDS011;17448;47.200;10.902;2024-03-08T04:01:29;5.72;;;2.58;;
30697;SDS011;17448;47.200;10.902;2024-03-08T04:03:56;3.95;;;1.50;;
30697;SDS011;17448;47.200;10.902;2024-03-08T04:06:22;6.43;;;1.35;;
30697;SDS011;17448;47.200;10.902;2024-03-08T04:08:48;2.05;;;1.33;;
30697;SDS011;17448;47.200;10.902;2024-03-08T04:11:15;2.92;;;1.20;;
30697;SDS011;17448;47.200;10.902;2024-03-08T04:13:44;2.10;;;1.63;;
30697;SDS011;17448;47.200;10.902;2024-03-08T04:16:10;5.47;;;1.58;;
30697;SDS011;17448;47.200;10.902;2024-03-08T04:18:36;2.50;;;1.70;;
30697;SDS011;17448;47.200;10.902;2024-03-08T04:21:05;3.60;;;1.45;;
30697;SDS011;17448;47.200;10.902;2024-03-08T04:23:34;2.63;;;1.45;;
30697;SDS011;17448;47.200;10.902;2024-03-08T04:26:01;3.50;;;1.42;;
30697;SDS011;17448;47.200;10.902;2024-03-08T04:28:29;2.53;;;1.63;;
30697;SDS011;17448;47.200;10.902;2024-03-08T04:30:56;1.65;;;1.38;;
30697;SDS011;17448;47.200;10.902;2024-03-08T04:33:23;2.20;;;1.45;;
30697;SDS011;17448;47.200;10.902;2024-03-08T04:35:49;4.70;;;1.48;;
30697;SDS011;17448;47.200;10.902;2024-03-08T04:38:15;5.65;;;1.92;;
30697;SDS011;17448;47.200;10.902;2024-03-08T04:40:41;5.45;;;1.80;;
30697;SDS011;17448;47.200;10.902;2024-03-08T04:43:08;4.78;;;2.05;;
30697;SDS011;17448;47.200;10.902;2024-03-08T04:45:35;3.60;;;1.27;;
30697;SDS011;17448;47.200;10.902;2024-03-08T04:48:02;3.08;;;1.48;;
30697;SDS011;17448;47.200;10.902;2024-03-08T04:50:28;4.57;;;1.92;;
30697;SDS011;17448;47.200;10.902;2024-03-08T04:52:55;7.38;;;2.33;;
30697;SDS011;17448;47.200;10.902;2024-03-08T04:55:21;3.75;;;1.80;;
30697;SDS011;17448;47.200;10.902;2024-03-08T04:57:48;1.58;;;1.48;;
30697;SDS011;17448;47.200;10.902;2024-03-08T05:00:14;4.20;;;1.70;;
30697;SDS011;17448;47.200;10.902;2024-03-08T05:02:41;4.65;;;1.40;;
30697;SDS011;17448;47.200;10.902;2024-03-08T05:05:08;3.78;;;1.42;;
30697;SDS011;17448;47.200;10.902;2024-03-08T05:07:38;3.58;;;1.38;;
30697;SDS011;17448;47.200;10.902;2024-03-08T05:10:05;3.38;;;1.42;;
30697;SDS011;17448;47.200;10.902;2024-03-08T05:12:32;2.47;;;1.50;;
30697;SDS011;17448;47.200;10.902;2024-03-08T05:14:58;5.68;;;1.65;;
30697;SDS011;17448;47.200;10.902;2024-03-08T05:17:25;4.43;;;2.10;;
30697;SDS011;17448;47.200;10.902;2024-03-08T05:19:51;2.22;;;1.60;;
30697;SDS011;17448;47.200;10.902;2024-03-08T05:22:18;3.78;;;1.65;;
30697;SDS011;17448;47.200;10.902;2024-03-08T05:24:44;1.98;;;1.42;;
30697;SDS011;17448;47.200;10.902;2024-03-08T05:27:11;2.67;;;1.60;;
30697;SDS011;17448;47.200;10.902;2024-03-08T05:29:38;4.03;;;2.58;;
30697;SDS011;17448;47.200;10.902;2024-03-08T05:32:04;8.40;;;2.33;;
30697;SDS011;17448;47.200;10.902;2024-03-08T05:34:32;3.30;;;1.98;;
30697;SDS011;17448;47.200;10.902;2024-03-08T05:36:58;3.90;;;1.52;;
30697;SDS011;17448;47.200;10.902;2024-03-08T05:39:25;6.80;;;1.80;;
30697;SDS011;17448;47.200;10.902;2024-03-08T05:41:51;9.65;;;2.13;;
30697;SDS011;17448;47.200;10.902;2024-03-08T05:44:18;3.67;;;1.77;;
30697;SDS011;17448;47.200;10.902;2024-03-08T05:46:44;3.75;;;1.52;;
30697;SDS011;17448;47.200;10.902;2024-03-08T05:49:11;4.93;;;2.00;;
30697;SDS011;17448;47.200;10.902;2024-03-08T05:51:39;5.50;;;1.90;;
30697;SDS011;17448;47.200;10.902;2024-03-08T05:54:06;8.13;;;2.17;;
30697;SDS011;17448;47.200;10.902;2024-03-08T05:56:35;3.88;;;1.88;;
30697;SDS011;17448;47.200;10.902;2024-03-08T05:59:02;3.83;;;1.42;;
30697;SDS011;17448;47.200;10.902;2024-03-08T06:01:28;2.03;;;1.52;;
30697;SDS011;17448;47.200;10.902;2024-03-08T06:03:56;3.55;;;1.50;;
30697;SDS011;17448;47.200;10.902;2024-03-08T06:06:23;3.47;;;1.42;;
30697;SDS011;17448;47.200;10.902;2024-03-08T06:08:50;4.55;;;2.33;;
30697;SDS011;17448;47.200;10.902;2024-03-08T06:11:17;2.85;;;1.90;;
30697;SDS011;17448;47.200;10.902;2024-03-08T06:13:43;4.20;;;1.45;;
30697;SDS011;17448;47.200;10.902;2024-03-08T06:16:10;3.38;;;1.70;;
30697;SDS011;17448;47.200;10.902;2024-03-08T06:18:36;4.13;;;1.60;;
30697;SDS011;17448;47.200;10.902;2024-03-08T06:21:03;3.03;;;1.75;;
30697;SDS011;17448;47.200;10.902;2024-03-08T06:23:31;10.00;;;1.98;;
30697;SDS011;17448;47.200;10.902;2024-03-08T06:25:57;5.22;;;2.17;;
30697;SDS011;17448;47.200;10.902;2024-03-08T06:28:24;4.07;;;2.03;;
30697;SDS011;17448;47.200;10.902;2024-03-08T06:30:51;5.75;;;1.60;;
30697;SDS011;17448;47.200;10.902;2024-03-08T06:33:17;5.25;;;1.67;;
30697;SDS011;17448;47.200;10.902;2024-03-08T06:35:43;8.43;;;2.40;;
30697;SDS011;17448;47.200;10.902;2024-03-08T06:38:10;6.38;;;2.53;;
30697;SDS011;17448;47.200;10.902;2024-03-08T06:40:36;8.55;;;2.63;;
30697;SDS011;17448;47.200;10.902;2024-03-08T06:43:03;9.82;;;2.70;;
30697;SDS011;17448;47.200;10.902;2024-03-08T06:45:32;7.47;;;2.40;;
30697;SDS011;17448;47.200;10.902;2024-03-08T06:47:58;5.65;;;1.70;;
30697;SDS011;17448;47.200;10.902;2024-03-08T06:50:25;3.45;;;1.83;;
30697;SDS011;17448;47.200;10.902;2024-03-08T06:52:51;7.57;;;2.28;;
30697;SDS011;17448;47.200;10.902;2024-03-08T06:55:21;8.57;;;2.25;;
30697;SDS011;17448;47.200;10.902;2024-03-08T06:57:48;5.78;;;2.58;;
30697;SDS011;17448;47.200;10.902;2024-03-08T07:00:14;10.20;;;2.72;;
30697;SDS011;17448;47.200;10.902;2024-03-08T07:02:46;5.07;;;2.33;;
30697;SDS011;17448;47.200;10.902;2024-03-08T07:05:15;7.15;;;3.38;;
30697;SDS011;17448;47.200;10.902;2024-03-08T07:07:41;5.60;;;2.80;;
30697;SDS011;17448;47.200;10.902;2024-03-08T07:10:08;7.13;;;3.10;;
30697;SDS011;17448;47.200;10.902;2024-03-08T07:12:36;7.68;;;3.47;;
30697;SDS011;17448;47.200;10.902;2024-03-08T07:15:04;4.22;;;2.95;;
30697;SDS011;17448;47.200;10.902;2024-03-08T07:17:31;8.57;;;3.40;;
30697;SDS011;17448;47.200;10.902;2024-03-08T07:19:59;11.65;;;3.08;;
30697;SDS011;17448;47.200;10.902;2024-03-08T07:22:32;8.98;;;3.38;;
30697;SDS011;17448;47.200;10.902;2024-03-08T07:24:58;9.00;;;3.50;;
30697;SDS011;17448;47.200;10.902;2024-03-08T07:27:43;6.18;;;3.10;;
30697;SDS011;17448;47.200;10.902;2024-03-08T07:30:11;8.77;;;3.50;;
30697;SDS011;17448;47.200;10.902;2024-03-08T07:32:37;11.43;;;3.88;;
30697;SDS011;17448;47.200;10.902;2024-03-08T07:35:04;11.70;;;4.15;;
30697;SDS011;17448;47.200;10.902;2024-03-08T07:37:31;10.05;;;4.40;;
30697;SDS011;17448;47.200;10.902;2024-03-08T07:39:57;8.63;;;4.47;;
30697;SDS011;17448;47.200;10.902;2024-03-08T07:42:23;8.20;;;4.10;;
30697;SDS011;17448;47.200;10.902;2024-03-08T07:44:49;16.48;;;5.25;;
30697;SDS011;17448;47.200;10.902;2024-03-08T07:47:16;15.95;;;4.60;;
30697;SDS011;17448;47.200;10.902;2024-03-08T07:49:43;13.30;;;5.32;;
30697;SDS011;17448;47.200;10.902;2024-03-08T07:52:09;7.47;;;4.18;;
30697;SDS011;17448;47.200;10.902;2024-03-08T07:54:40;9.00;;;4.40;;
30697;SDS011;17448;47.200;10.902;2024-03-08T07:57:07;12.38;;;5.05;;
30697;SDS011;17448;47.200;10.902;2024-03-08T07:59:33;9.15;;;4.80;;
30697;SDS011;17448;47.200;10.902;2024-03-08T08:01:59;35.28;;;5.40;;
30697;SDS011;17448;47.200;10.902;2024-03-08T08:04:25;20.45;;;4.90;;
30697;SDS011;17448;47.200;10.902;2024-03-08T08:06:52;10.90;;;4.70;;
30697;SDS011;17448;47.200;10.902;2024-03-08T08:09:20;8.25;;;4.38;;
30697;SDS011;17448;47.200;10.902;2024-03-08T08:11:56;14.45;;;4.07;;
30697;SDS011;17448;47.200;10.902;2024-03-08T08:14:23;8.23;;;4.18;;
30697;SDS011;17448;47.200;10.902;2024-03-08T08:16:49;15.85;;;4.63;;
30697;SDS011;17448;47.200;10.902;2024-03-08T08:19:18;20.40;;;9.30;;
30697;SDS011;17448;47.200;10.902;2024-03-08T08:21:44;16.77;;;7.90;;
30697;SDS011;17448;47.200;10.902;2024-03-08T08:24:11;26.95;;;8.50;;
30697;SDS011;17448;47.200;10.902;2024-03-08T08:26:37;20.15;;;7.30;;
30697;SDS011;17448;47.200;10.902;2024-03-08T08:29:03;32.15;;;15.27;;
30697;SDS011;17448;47.200;10.902;2024-03-08T08:31:32;13.65;;;7.53;;
30697;SDS011;17448;47.200;10.902;2024-03-08T08:33:58;22.90;;;7.70;;
30697;SDS011;17448;47.200;10.902;2024-03-08T08:36:25;21.00;;;6.25;;
30697;SDS011;17448;47.200;10.902;2024-03-08T08:38:51;40.00;;;17.52;;
30697;SDS011;17448;47.200;10.902;2024-03-08T08:41:21;48.72;;;17.05;;
30697;SDS011;17448;47.200;10.902;2024-03-08T08:43:48;45.67;;;17.45;;
30697;SDS011;17448;47.200;10.902;2024-03-08T08:46:17;80.57;;;19.67;;
30697;SDS011;17448;47.200;10.902;2024-03-08T08:48:44;56.65;;;17.58;;
30697;SDS011;17448;47.200;10.902;2024-03-08T08:51:10;16.77;;;6.75;;
30697;SDS011;17448;47.200;10.902;2024-03-08T08:53:38;9.25;;;3.22;;
30697;SDS011;17448;47.200;10.902;2024-03-08T08:56:06;9.02;;;2.00;;
30697;SDS011;17448;47.200;10.902;2024-03-08T08:58:33;2.78;;;1.90;;
30697;SDS011;17448;47.200;10.902;2024-03-08T09:00:59;2.30;;;1.42;;
30697;SDS011;17448;47.200;10.902;2024-03-08T09:03:26;4.00;;;1.50;;
30697;SDS011;17448;47.200;10.902;2024-03-08T09:05:54;13.80;;;2.20;;
30697;SDS011;17448;47.200;10.902;2024-03-08T09:08:21;3.70;;;1.80;;
30697;SDS011;17448;47.200;10.902;2024-03-08T09:10:48;2.38;;;1.60;;
30697;SDS011;17448;47.200;10.902;2024-03-08T09:13:14;6.45;;;1.70;;
30697;SDS011;17448;47.200;10.902;2024-03-08T09:15:42;8.88;;;1.77;;
30697;SDS011;17448;47.200;10.902;2024-03-08T09:18:09;3.90;;;1.70;;
30697;SDS011;17448;47.200;10.902;2024-03-08T09:20:35;7.35;;;1.95;;
30697;SDS011;17448;47.200;10.902;2024-03-08T09:23:02;4.72;;;2.40;;
30697;SDS011;17448;47.200;10.902;2024-03-08T09:25:29;12.85;;;2.35;;
30697;SDS011;17448;47.200;10.902;2024-03-08T09:27:55;6.55;;;3.05;;
30697;SDS011;17448;47.200;10.902;2024-03-08T09:30:21;5.68;;;2.13;;
30697;SDS011;17448;47.200;10.902;2024-03-08T09:32:49;6.38;;;1.90;;
30697;SDS011;17448;47.200;10.902;2024-03-08T09:35:16;5.97;;;1.77;;
30697;SDS011;17448;47.200;10.902;2024-03-08T09:37:42;6.80;;;1.73;;
30697;SDS011;17448;47.200;10.902;2024-03-08T09:40:09;4.32;;;1.60;;
30697;SDS011;17448;47.200;10.902;2024-03-08T09:42:35;2.33;;;1.52;;
30697;SDS011;17448;47.200;10.902;2024-03-08T09:45:08;4.38;;;1.55;;
30697;SDS011;17448;47.200;10.902;2024-03-08T09:50:04;5.40;;;1.50;;
30697;SDS011;17448;47.200;10.902;2024-03-08T09:52:31;3.78;;;1.98;;
30697;SDS011;17448;47.200;10.902;2024-03-08T09:54:57;2.80;;;1.60;;
30697;SDS011;17448;47.200;10.902;2024-03-08T09:57:25;5.20;;;1.60;;
30697;SDS011;17448;47.200;10.902;2024-03-08T09:59:51;5.07;;;1.73;;
30697;SDS011;17448;47.200;10.902;2024-03-08T10:02:18;4.15;;;2.22;;
30697;SDS011;17448;47.200;10.902;2024-03-08T10:04:44;3.28;;;1.70;;
30697;SDS011;17448;47.200;10.902;2024-03-08T10:07:12;3.05;;;1.98;;
30697;SDS011;17448;47.200;10.902;2024-03-08T10:09:38;2.42;;;1.55;;
30697;SDS011;17448;47.200;10.902;2024-03-08T10:12:06;4.30;;;1.75;;
30697;SDS011;17448;47.200;10.902;2024-03-08T10:14:33;4.60;;;2.05;;
30697;SDS011;17448;47.200;10.902;2024-03-08T10:16:59;7.15;;;1.92;;
30697;SDS011;17448;47.200;10.902;2024-03-08T10:19:26;3.30;;;1.83;;
30697;SDS011;17448;47.200;10.902;2024-03-08T10:21:55;5.88;;;1.33;;
30697;SDS011;17448;47.200;10.902;2024-03-08T10:24:24;7.78;;;2.00;;
30697;SDS011;17448;47.200;10.902;2024-03-08T10:27:00;5.22;;;1.83;;
30697;SDS011;17448;47.200;10.902;2024-03-08T10:29:31;2.17;;;1.50;;
30697;SDS011;17448;47.200;10.902;2024-03-08T10:31:57;3.50;;;2.25;;
30697;SDS011;17448;47.200;10.902;2024-03-08T10:34:23;4.53;;;1.75;;
30697;SDS011;17448;47.200;10.902;2024-03-08T10:36:50;3.67;;;1.48;;
30697;SDS011;17448;47.200;10.902;2024-03-08T10:39:24;6.47;;;2.25;;
30697;SDS011;17448;47.200;10.902;2024-03-08T10:41:56;3.45;;;1.70;;
30697;SDS011;17448;47.200;10.902;2024-03-08T10:52:11;4.75;;;1.85;;
30697;SDS011;17448;47.200;10.902;2024-03-08T10:54:38;3.85;;;1.70;;
30697;SDS011;17448;47.200;10.902;2024-03-08T10:57:05;4.40;;;1.42;;
30697;SDS011;17448;47.200;10.902;2024-03-08T10:59:34;3.80;;;1.60;;
30697;SDS011;17448;47.200;10.902;2024-03-08T11:02:01;3.78;;;1.40;;
30697;SDS011;17448;47.200;10.902;2024-03-08T11:04:27;3.88;;;1.42;;
30697;SDS011;17448;47.200;10.902;2024-03-08T11:07:00;9.25;;;2.05;;
30697;SDS011;17448;47.200;10.902;2024-03-08T11:14:44;4.80;;;2.13;;
30697;SDS011;17448;47.200;10.902;2024-03-08T11:17:13;5.70;;;1.67;;
30697;SDS011;17448;47.200;10.902;2024-03-08T11:19:44;4.50;;;1.85;;
30697;SDS011;17448;47.200;10.902;2024-03-08T11:22:19;8.48;;;1.30;;
30697;SDS011;17448;47.200;10.902;2024-03-08T11:24:48;3.10;;;1.80;;
30697;SDS011;17448;47.200;10.902;2024-03-08T11:27:15;3.88;;;1.75;;
30697;SDS011;17448;47.200;10.902;2024-03-08T11:29:41;7.18;;;1.98;;
30697;SDS011;17448;47.200;10.902;2024-03-08T11:34:41;2.70;;;1.70;;
30697;SDS011;17448;47.200;10.902;2024-03-08T11:37:11;2.22;;;1.42;;
30697;SDS011;17448;47.200;10.902;2024-03-08T11:39:38;3.35;;;1.70;;
30697;SDS011;17448;47.200;10.902;2024-03-08T11:42:05;5.45;;;1.75;;
30697;SDS011;17448;47.200;10.902;2024-03-08T11:44:31;2.38;;;1.52;;
30697;SDS011;17448;47.200;10.902;2024-03-08T11:46:58;4.60;;;1.88;;
30697;SDS011;17448;47.200;10.902;2024-03-08T11:49:24;3.45;;;1.48;;
30697;SDS011;17448;47.200;10.902;2024-03-08T11:51:51;2.03;;;1.50;;
30697;SDS011;17448;47.200;10.902;2024-03-08T11:54:19;5.20;;;1.80;;
30697;SDS011;17448;47.200;10.902;2024-03-08T11:56:45;2.33;;;1.67;;
30697;SDS011;17448;47.200;10.902;2024-03-08T11:59:13;3.40;;;1.55;;
30697;SDS011;17448;47.200;10.902;2024-03-08T12:02:00;3.72;;;1.70;;
30697;SDS011;17448;47.200;10.902;2024-03-08T12:04:30;3.97;;;1.58;;
30697;SDS011;17448;47.200;10.902;2024-03-08T12:07:03;5.38;;;1.85;;
30697;SDS011;17448;47.200;10.902;2024-03-08T12:09:35;4.25;;;1.75;;
30697;SDS011;17448;47.200;10.902;2024-03-08T12:12:02;4.10;;;1.83;;
30697;SDS011;17448;47.200;10.902;2024-03-08T12:14:30;3.70;;;1.52;;
30697;SDS011;17448;47.200;10.902;2024-03-08T12:16:57;6.05;;;1.98;;
30697;SDS011;17448;47.200;10.902;2024-03-08T12:19:23;2.20;;;1.40;;
30697;SDS011;17448;47.200;10.902;2024-03-08T12:21:50;3.05;;;1.63;;
30697;SDS011;17448;47.200;10.902;2024-03-08T12:24:16;4.22;;;2.28;;
30697;SDS011;17448;47.200;10.902;2024-03-08T12:26:46;1.60;;;1.38;;
30697;SDS011;17448;47.200;10.902;2024-03-08T12:29:19;4.38;;;1.60;;
30697;SDS011;17448;47.200;10.902;2024-03-08T12:31:54;3.33;;;1.90;;
30697;SDS011;17448;47.200;10.902;2024-03-08T12:34:23;6.40;;;2.42;;
30697;SDS011;17448;47.200;10.902;2024-03-08T12:36:50;6.70;;;1.50;;
30697;SDS011;17448;47.200;10.902;2024-03-08T12:39:33;9.65;;;2.17;;
30697;SDS011;17448;47.200;10.902;2024-03-08T12:45:46;5.00;;;1.88;;
30697;SDS011;17448;47.200;10.902;2024-03-08T12:48:15;5.60;;;1.92;;
30697;SDS011;17448;47.200;10.902;2024-03-08T12:50:41;3.15;;;1.85;;
30697;SDS011;17448;47.200;10.902;2024-03-08T12:53:13;2.20;;;1.50;;
30697;SDS011;17448;47.200;10.902;2024-03-08T12:55:42;5.18;;;1.75;;
30697;SDS011;17448;47.200;10.902;2024-03-08T12:58:46;3.13;;;1.90;;
30697;SDS011;17448;47.200;10.902;2024-03-08T13:01:13;4.00;;;2.08;;
30697;SDS011;17448;47.200;10.902;2024-03-08T13:03:40;5.05;;;1.80;;
30697;SDS011;17448;47.200;10.902;2024-03-08T13:06:09;3.45;;;2.10;;
30697;SDS011;17448;47.200;10.902;2024-03-08T13:08:37;10.32;;;4.13;;
30697;SDS011;17448;47.200;10.902;2024-03-08T13:11:04;5.55;;;2.00;;
30697;SDS011;17448;47.200;10.902;2024-03-08T13:13:32;5.28;;;1.70;;
30697;SDS011;17448;47.200;10.902;2024-03-08T13:16:01;2.28;;;1.92;;
30697;SDS011;17448;47.200;10.902;2024-03-08T13:18:27;2.17;;;1.55;;
30697;SDS011;17448;47.200;10.902;2024-03-08T13:20:54;2.92;;;1.50;;
30697;SDS011;17448;47.200;10.902;2024-03-08T13:23:22;3.10;;;1.50;;
30697;SDS011;17448;47.200;10.902;2024-03-08T13:25:49;8.02;;;2.25;;
30697;SDS011;17448;47.200;10.902;2024-03-08T13:28:16;6.88;;;1.88;;
30697;SDS011;17448;47.200;10.902;2024-03-08T13:30:48;6.35;;;1.80;;
30697;SDS011;17448;47.200;10.902;2024-03-08T13:33:14;2.60;;;1.92;;
30697;SDS011;17448;47.200;10.902;2024-03-08T13:35:40;7.57;;;1.90;;
30697;SDS011;17448;47.200;10.902;2024-03-08T13:38:07;3.45;;;1.70;;
30697;SDS011;17448;47.200;10.902;2024-03-08T13:40:37;3.35;;;1.50;;
30697;SDS011;17448;47.200;10.902;2024-03-08T13:43:05;3.55;;;1.75;;
30697;SDS011;17448;47.200;10.902;2024-03-08T13:45:33;4.22;;;1.77;;
30697;SDS011;17448;47.200;10.902;2024-03-08T13:48:03;5.35;;;1.45;;
30697;SDS011;17448;47.200;10.902;2024-03-08T13:50:30;10.20;;;1.80;;
30697;SDS011;17448;47.200;10.902;2024-03-08T13:52:56;1.83;;;1.27;;
30697;SDS011;17448;47.200;10.902;2024-03-08T13:55:23;2.58;;;1.48;;
30697;SDS011;17448;47.200;10.902;2024-03-08T13:57:52;4.22;;;1.30;;
30697;SDS011;17448;47.200;10.902;2024-03-08T14:00:18;3.47;;;1.52;;
30697;SDS011;17448;47.200;10.902;2024-03-08T14:02:48;2.83;;;1.48;;
30697;SDS011;17448;47.200;10.902;2024-03-08T14:05:14;2.78;;;1.20;;
30697;SDS011;17448;47.200;10.902;2024-03-08T14:07:41;1.75;;;1.15;;
30697;SDS011;17448;47.200;10.902;2024-03-08T14:10:07;3.45;;;1.42;;
30697;SDS011;17448;47.200;10.902;2024-03-08T14:12:35;2.03;;;1.30;;
30697;SDS011;17448;47.200;10.902;2024-03-08T14:15:03;3.55;;;1.60;;
30697;SDS011;17448;47.200;10.902;2024-03-08T14:17:32;3.00;;;1.50;;
30697;SDS011;17448;47.200;10.902;2024-03-08T14:20:00;1.73;;;1.40;;
30697;SDS011;17448;47.200;10.902;2024-03-08T14:22:26;1.58;;;1.30;;
30697;SDS011;17448;47.200;10.902;2024-03-08T14:24:52;8.48;;;1.60;;
30697;SDS011;17448;47.200;10.902;2024-03-08T14:27:21;2.90;;;1.50;;
30697;SDS011;17448;47.200;10.902;2024-03-08T14:29:48;3.05;;;1.60;;
30697;SDS011;17448;47.200;10.902;2024-03-08T14:32:14;2.10;;;1.40;;
30697;SDS011;17448;47.200;10.902;2024-03-08T14:34:41;4.32;;;1.30;;
30697;SDS011;17448;47.200;10.902;2024-03-08T14:37:09;5.22;;;1.48;;
30697;SDS011;17448;47.200;10.902;2024-03-08T14:39:37;5.20;;;1.50;;
30697;SDS011;17448;47.200;10.902;2024-03-08T14:42:03;2.55;;;1.10;;
30697;SDS011;17448;47.200;10.902;2024-03-08T14:44:31;3.42;;;1.30;;
30697;SDS011;17448;47.200;10.902;2024-03-08T14:46:57;7.30;;;1.83;;
30697;SDS011;17448;47.200;10.902;2024-03-08T14:49:24;2.08;;;1.25;;
30697;SDS011;17448;47.200;10.902;2024-03-08T14:51:55;2.40;;;1.30;;
30697;SDS011;17448;47.200;10.902;2024-03-08T14:54:25;4.07;;;1.77;;
30697;SDS011;17448;47.200;10.902;2024-03-08T14:56:52;13.30;;;2.22;;